Time,TemperatureF,DewpointF,PressureIn,WindDirection,WindDirectionDegrees,WindSpeedMPH,WindSpeedGustMPH,Humidity,HourlyPrecipIn,Conditions,Clouds,dailyrainin,SoftwareType,DateUTC
2013-07-17 00:00:00,76.7,71.5,30.25,ENE,61,0.0,0.0,84,0.00,,BKN075,0.00,VWS V14.01,2013-07-17 04:00:00,
2013-07-17 00:01:00,76.7,71.9,30.25,ENE,62,0.0,2.0,85,0.00,,BKN075,0.00,VWS V14.01,2013-07-17 04:01:00,
2013-07-17 00:06:00,76.8,72.3,30.25,South,182,0.0,3.0,86,0.00,,CLR,0.00,VWS V14.01,2013-07-17 04:06:00,
2013-07-17 00:11:00,76.7,72.2,30.25,South,182,0.0,0.0,86,0.00,,CLR,0.00,VWS V14.01,2013-07-17 04:11:00,
2013-07-17 00:15:00,76.7,72.2,30.25,South,182,0.0,0.0,86,0.00,,OVC018,0.00,VWS V14.01,2013-07-17 04:15:00,
2013-07-17 00:16:00,76.7,72.5,30.25,South,182,0.0,0.0,87,0.00,,CLR,0.00,VWS V14.01,2013-07-17 04:16:00,
2013-07-17 00:21:00,76.7,72.5,30.25,South,182,0.0,0.0,87,0.00,,CLR,0.00,VWS V14.01,2013-07-17 04:21:00,
2013-07-17 00:26:00,76.8,72.6,30.25,South,182,0.0,0.0,87,0.00,,CLR,0.00,VWS V14.01,2013-07-17 04:26:00,
2013-07-17 00:30:00,76.8,72.6,30.24,South,182,0.0,0.0,87,0.00,,OVC018,0.00,VWS V14.01,2013-07-17 04:30:00,
2013-07-17 00:31:00,76.8,72.6,30.24,South,182,0.0,0.0,87,0.00,,CLR,0.00,VWS V14.01,2013-07-17 04:31:00,
2013-07-17 00:36:00,76.8,72.6,30.24,South,182,0.0,0.0,87,0.00,,CLR,0.00,VWS V14.01,2013-07-17 04:36:00,
2013-07-17 00:41:00,76.8,73.0,30.24,South,182,0.0,0.0,88,0.00,,CLR,0.00,VWS V14.01,2013-07-17 04:41:00,
2013-07-17 00:45:00,76.8,73.0,30.25,South,182,0.0,0.0,88,0.00,,OVC018,0.00,VWS V14.01,2013-07-17 04:45:00,
2013-07-17 00:46:00,76.7,72.9,30.25,South,182,0.0,0.0,88,0.00,,CLR,0.00,VWS V14.01,2013-07-17 04:46:00,
2013-07-17 00:51:00,76.7,72.9,30.25,South,182,0.0,0.0,88,0.00,,CLR,0.00,VWS V14.01,2013-07-17 04:51:00,
2013-07-17 00:55:00,76.7,72.9,30.25,South,182,0.0,0.0,88,0.00,,CLR,0.00,VWS V14.01,2013-07-17 04:55:00,
2013-07-17 00:59:00,76.7,72.9,30.25,South,182,0.0,0.0,88,0.00,,CLR,0.00,VWS V14.01,2013-07-17 04:59:00,
2013-07-17 01:00:00,76.7,72.9,30.24,South,182,0.0,0.0,88,0.00,,OVC018,0.00,VWS V14.01,2013-07-17 05:00:00,
2013-07-17 01:04:00,76.5,72.7,30.24,South,182,0.0,0.0,88,0.00,,CLR,0.00,VWS V14.01,2013-07-17 05:04:00,
2013-07-17 01:09:00,76.5,72.7,30.24,South,182,0.0,0.0,88,0.00,,CLR,0.00,VWS V14.01,2013-07-17 05:09:00,
2013-07-17 01:14:00,76.5,72.7,30.24,South,182,0.0,0.0,88,0.00,,CLR,0.00,VWS V14.01,2013-07-17 05:14:00,
2013-07-17 01:15:00,76.5,72.7,30.24,South,182,0.0,0.0,88,0.00,,OVC018,0.00,VWS V14.01,2013-07-17 05:15:00,
2013-07-17 01:19:00,76.3,72.5,30.24,South,182,0.0,0.0,88,0.00,,CLR,0.00,VWS V14.01,2013-07-17 05:19:00,
2013-07-17 01:24:00,76.3,72.8,30.24,South,182,0.0,0.0,89,0.00,,CLR,0.00,VWS V14.01,2013-07-17 05:24:00,
2013-07-17 01:29:00,76.1,72.6,30.24,South,182,0.0,0.0,89,0.00,,CLR,0.00,VWS V14.01,2013-07-17 05:29:00,
2013-07-17 01:30:00,76.1,72.6,30.24,South,182,0.0,0.0,89,0.00,,OVC018,0.00,VWS V14.01,2013-07-17 05:30:00,
2013-07-17 01:34:00,76.1,72.6,30.24,South,182,0.0,0.0,89,0.00,,CLR,0.00,VWS V14.01,2013-07-17 05:34:00,
2013-07-17 01:39:00,76.0,72.5,30.24,South,182,0.0,0.0,89,0.00,,CLR,0.00,VWS V14.01,2013-07-17 05:39:00,
2013-07-17 01:44:00,75.8,72.3,30.24,South,182,0.0,0.0,89,0.00,,CLR,0.00,VWS V14.01,2013-07-17 05:44:00,
2013-07-17 01:45:00,75.8,72.3,30.23,South,182,0.0,0.0,89,0.00,,OVC018,0.00,VWS V14.01,2013-07-17 05:45:00,
2013-07-17 01:49:00,75.8,72.3,30.23,South,182,0.0,0.0,89,0.00,,CLR,0.00,VWS V14.01,2013-07-17 05:49:00,
2013-07-17 01:54:00,75.6,72.5,30.23,South,182,0.0,0.0,90,0.00,,CLR,0.00,VWS V14.01,2013-07-17 05:54:00,
2013-07-17 01:59:00,75.6,72.5,30.23,South,182,0.0,0.0,90,0.00,,CLR,0.00,VWS V14.01,2013-07-17 05:59:00,
2013-07-17 02:00:00,75.4,72.3,30.23,South,182,0.0,0.0,90,0.00,,OVC018,0.00,VWS V14.01,2013-07-17 06:00:00,
2013-07-17 02:04:00,75.4,72.3,30.23,South,182,0.0,0.0,90,0.00,,CLR,0.00,VWS V14.01,2013-07-17 06:04:00,
2013-07-17 02:09:00,75.3,72.2,30.23,South,182,0.0,0.0,90,0.00,,CLR,0.00,VWS V14.01,2013-07-17 06:09:00,
2013-07-17 02:14:00,75.3,72.2,30.23,South,182,0.0,0.0,90,0.00,,CLR,0.00,VWS V14.01,2013-07-17 06:14:00,
2013-07-17 02:15:00,75.1,72.0,30.23,South,182,0.0,0.0,90,0.00,,OVC018,0.00,VWS V14.01,2013-07-17 06:15:00,
2013-07-17 02:19:00,75.1,72.0,30.23,South,182,0.0,0.0,90,0.00,,CLR,0.00,VWS V14.01,2013-07-17 06:19:00,
2013-07-17 02:24:00,74.9,71.8,30.23,South,182,0.0,0.0,90,0.00,,CLR,0.00,VWS V14.01,2013-07-17 06:24:00,
2013-07-17 02:29:00,74.9,72.1,30.23,South,182,0.0,0.0,91,0.00,,CLR,0.00,VWS V14.01,2013-07-17 06:29:00,
2013-07-17 02:30:00,74.9,72.1,30.23,South,182,0.0,0.0,91,0.00,,OVC018,0.00,VWS V14.01,2013-07-17 06:30:00,
2013-07-17 02:34:00,74.9,72.1,30.23,South,182,0.0,0.0,91,0.00,,CLR,0.00,VWS V14.01,2013-07-17 06:34:00,
2013-07-17 02:39:00,74.7,71.9,30.23,South,182,0.0,0.0,91,0.00,,CLR,0.00,VWS V14.01,2013-07-17 06:39:00,
2013-07-17 02:44:00,74.6,71.8,30.23,South,182,0.0,0.0,91,0.00,,CLR,0.00,VWS V14.01,2013-07-17 06:44:00,
2013-07-17 02:45:00,74.6,71.8,30.23,South,182,0.0,0.0,91,0.00,,OVC018,0.00,VWS V14.01,2013-07-17 06:45:00,
2013-07-17 02:49:00,74.6,71.8,30.23,South,182,0.0,0.0,91,0.00,,CLR,0.00,VWS V14.01,2013-07-17 06:49:00,
2013-07-17 02:54:00,74.4,71.9,30.23,South,182,0.0,0.0,92,0.00,,CLR,0.00,VWS V14.01,2013-07-17 06:54:00,
2013-07-17 02:59:00,74.4,71.9,30.23,South,182,0.0,0.0,92,0.00,,CLR,0.00,VWS V14.01,2013-07-17 06:59:00,
2013-07-17 03:00:00,74.4,71.9,30.23,South,182,0.0,0.0,92,0.00,,OVC018,0.00,VWS V14.01,2013-07-17 07:00:00,
2013-07-17 03:04:00,74.4,71.9,30.23,South,182,0.0,0.0,92,0.00,,,0.00,VWS V14.01,2013-07-17 07:04:00,
2013-07-17 03:09:00,74.2,71.7,30.23,South,182,0.0,0.0,92,0.00,,,0.00,VWS V14.01,2013-07-17 07:09:00,
2013-07-17 03:14:00,74.0,71.5,30.23,South,182,0.0,0.0,92,0.00,,,0.00,VWS V14.01,2013-07-17 07:14:00,
2013-07-17 03:15:00,74.0,71.5,30.23,South,182,0.0,0.0,92,0.00,,OVC018,0.00,VWS V14.01,2013-07-17 07:15:00,
2013-07-17 03:19:00,74.0,71.5,30.23,South,182,0.0,0.0,92,0.00,,,0.00,VWS V14.01,2013-07-17 07:19:00,
2013-07-17 03:24:00,73.9,71.4,30.23,South,182,0.0,0.0,92,0.00,,,0.00,VWS V14.01,2013-07-17 07:24:00,
2013-07-17 03:29:00,73.9,71.4,30.23,South,182,0.0,0.0,92,0.00,,,0.00,VWS V14.01,2013-07-17 07:29:00,
2013-07-17 03:30:00,73.9,71.4,30.23,South,182,0.0,0.0,92,0.00,,OVC018,0.00,VWS V14.01,2013-07-17 07:30:00,
2013-07-17 03:34:00,73.7,71.2,30.23,South,182,0.0,0.0,92,0.00,,,0.00,VWS V14.01,2013-07-17 07:34:00,
2013-07-17 03:39:00,73.7,71.6,30.23,South,182,0.0,0.0,93,0.00,,,0.00,VWS V14.01,2013-07-17 07:39:00,
2013-07-17 03:44:00,73.7,71.6,30.23,South,182,0.0,0.0,93,0.00,,,0.00,VWS V14.01,2013-07-17 07:44:00,
2013-07-17 03:45:00,73.7,71.6,30.23,South,182,0.0,0.0,93,0.00,,OVC018,0.00,VWS V14.01,2013-07-17 07:45:00,
2013-07-17 03:49:00,73.7,71.6,30.23,South,182,0.0,0.0,93,0.00,,,0.00,VWS V14.01,2013-07-17 07:49:00,
2013-07-17 03:54:00,73.7,71.6,30.23,South,182,0.0,0.0,93,0.00,,,0.00,VWS V14.01,2013-07-17 07:54:00,
2013-07-17 03:59:00,73.5,71.4,30.23,South,182,0.0,0.0,93,0.00,,,0.00,VWS V14.01,2013-07-17 07:59:00,
2013-07-17 04:00:00,73.5,71.4,30.23,South,182,0.0,0.0,93,0.00,,OVC018,0.00,VWS V14.01,2013-07-17 08:00:00,
2013-07-17 04:04:00,73.5,71.4,30.23,South,182,0.0,0.0,93,0.00,,CLR,0.00,VWS V14.01,2013-07-17 08:04:00,
2013-07-17 04:09:00,73.3,71.2,30.23,South,182,0.0,0.0,93,0.00,,CLR,0.00,VWS V14.01,2013-07-17 08:09:00,
2013-07-17 04:14:00,73.2,71.1,30.24,South,182,0.0,0.0,93,0.00,,CLR,0.00,VWS V14.01,2013-07-17 08:14:00,
2013-07-17 04:15:00,73.2,71.1,30.24,South,182,0.0,0.0,93,0.00,,OVC018,0.00,VWS V14.01,2013-07-17 08:15:00,
2013-07-17 04:19:00,73.2,71.1,30.24,South,182,0.0,0.0,93,0.00,,CLR,0.00,VWS V14.01,2013-07-17 08:19:00,
2013-07-17 04:24:00,73.0,70.9,30.24,South,182,0.0,0.0,93,0.00,,CLR,0.00,VWS V14.01,2013-07-17 08:24:00,
2013-07-17 04:29:00,73.0,70.9,30.24,South,182,0.0,0.0,93,0.00,,CLR,0.00,VWS V14.01,2013-07-17 08:29:00,
2013-07-17 04:30:00,73.0,70.9,30.24,South,182,0.0,0.0,93,0.00,,OVC018,0.00,VWS V14.01,2013-07-17 08:30:00,
2013-07-17 04:34:00,72.8,70.7,30.24,South,182,0.0,0.0,93,0.00,,CLR,0.00,VWS V14.01,2013-07-17 08:34:00,
2013-07-17 04:39:00,72.7,70.6,30.24,South,182,0.0,0.0,93,0.00,,CLR,0.00,VWS V14.01,2013-07-17 08:39:00,
2013-07-17 04:44:00,72.7,70.6,30.24,South,182,0.0,0.0,93,0.00,,CLR,0.00,VWS V14.01,2013-07-17 08:44:00,
2013-07-17 04:45:00,72.7,70.6,30.24,South,182,0.0,0.0,93,0.00,,OVC018,0.00,VWS V14.01,2013-07-17 08:45:00,
2013-07-17 04:49:00,72.7,70.6,30.24,South,182,0.0,0.0,93,0.00,,CLR,0.00,VWS V14.01,2013-07-17 08:49:00,
2013-07-17 04:54:00,72.5,70.4,30.24,South,182,0.0,0.0,93,0.00,,CLR,0.00,VWS V14.01,2013-07-17 08:54:00,
2013-07-17 04:59:00,72.5,70.4,30.24,South,182,0.0,0.0,93,0.00,,CLR,0.00,VWS V14.01,2013-07-17 08:59:00,
2013-07-17 05:00:00,72.5,70.4,30.24,South,182,0.0,0.0,93,0.00,,OVC018,0.00,VWS V14.01,2013-07-17 09:00:00,
2013-07-17 05:04:00,72.5,70.4,30.24,South,182,0.0,0.0,93,0.00,,,0.00,VWS V14.01,2013-07-17 09:04:00,
2013-07-17 05:09:00,72.5,70.4,30.24,South,182,0.0,0.0,93,0.00,,,0.00,VWS V14.01,2013-07-17 09:09:00,
2013-07-17 05:14:00,72.3,70.5,30.25,South,182,0.0,0.0,94,0.00,,,0.00,VWS V14.01,2013-07-17 09:14:00,
2013-07-17 05:15:00,72.3,70.5,30.25,South,182,0.0,0.0,94,0.00,,OVC018,0.00,VWS V14.01,2013-07-17 09:15:00,
2013-07-17 05:19:00,72.5,70.7,30.25,South,182,0.0,0.0,94,0.00,,,0.00,VWS V14.01,2013-07-17 09:19:00,
2013-07-17 05:24:00,72.3,70.5,30.25,South,182,0.0,0.0,94,0.00,,,0.00,VWS V14.01,2013-07-17 09:24:00,
2013-07-17 05:29:00,72.3,70.5,30.25,South,182,0.0,0.0,94,0.00,,,0.00,VWS V14.01,2013-07-17 09:29:00,
2013-07-17 05:30:00,72.3,70.5,30.25,South,182,0.0,0.0,94,0.00,,OVC018,0.00,VWS V14.01,2013-07-17 09:30:00,
2013-07-17 05:34:00,72.1,70.3,30.25,South,182,0.0,0.0,94,0.00,,,0.00,VWS V14.01,2013-07-17 09:34:00,
2013-07-17 05:39:00,72.1,70.3,30.25,South,182,0.0,0.0,94,0.00,,,0.00,VWS V14.01,2013-07-17 09:39:00,
2013-07-17 05:44:00,72.1,70.3,30.25,South,182,0.0,0.0,94,0.00,,,0.00,VWS V14.01,2013-07-17 09:44:00,
2013-07-17 05:45:00,72.1,70.3,30.25,South,182,0.0,0.0,94,0.00,,OVC018,0.00,VWS V14.01,2013-07-17 09:45:00,
2013-07-17 05:49:00,72.0,70.2,30.25,South,182,0.0,0.0,94,0.00,,,0.00,VWS V14.01,2013-07-17 09:49:00,
2013-07-17 05:54:00,72.0,70.2,30.25,South,182,0.0,0.0,94,0.00,,,0.00,VWS V14.01,2013-07-17 09:54:00,
2013-07-17 05:59:00,72.0,70.2,30.25,South,182,0.0,0.0,94,0.00,,,0.00,VWS V14.01,2013-07-17 09:59:00,
2013-07-17 06:00:00,71.8,70.0,30.25,South,182,0.0,0.0,94,0.00,,OVC018,0.00,VWS V14.01,2013-07-17 10:00:00,
2013-07-17 06:04:00,71.8,70.0,30.25,South,182,0.0,0.0,94,0.00,,,0.00,VWS V14.01,2013-07-17 10:04:00,
2013-07-17 06:09:00,71.8,70.0,30.25,South,182,0.0,0.0,94,0.00,,,0.00,VWS V14.01,2013-07-17 10:09:00,
2013-07-17 06:14:00,71.8,70.0,30.26,South,182,0.0,0.0,94,0.00,,,0.00,VWS V14.01,2013-07-17 10:14:00,
2013-07-17 06:15:00,71.8,70.0,30.26,South,182,0.0,0.0,94,0.00,,OVC018,0.00,VWS V14.01,2013-07-17 10:15:00,
2013-07-17 06:19:00,71.6,69.8,30.26,South,182,0.0,0.0,94,0.00,,,0.00,VWS V14.01,2013-07-17 10:19:00,
2013-07-17 06:24:00,71.6,69.8,30.26,South,182,0.0,0.0,94,0.00,,,0.00,VWS V14.01,2013-07-17 10:24:00,
2013-07-17 06:29:00,71.6,69.8,30.26,South,182,0.0,0.0,94,0.00,,,0.00,VWS V14.01,2013-07-17 10:29:00,
2013-07-17 06:30:00,71.6,69.8,30.26,South,182,0.0,0.0,94,0.00,,OVC018,0.00,VWS V14.01,2013-07-17 10:30:00,
2013-07-17 06:34:00,71.6,69.8,30.26,South,182,0.0,0.0,94,0.00,,,0.00,VWS V14.01,2013-07-17 10:34:00,
2013-07-17 06:39:00,71.6,69.8,30.26,South,182,0.0,0.0,94,0.00,,,0.00,VWS V14.01,2013-07-17 10:39:00,
2013-07-17 06:44:00,71.6,69.8,30.26,South,182,0.0,0.0,94,0.00,,,0.00,VWS V14.01,2013-07-17 10:44:00,
2013-07-17 06:45:00,71.6,69.8,30.26,South,182,0.0,0.0,94,0.00,,OVC018,0.00,VWS V14.01,2013-07-17 10:45:00,
2013-07-17 06:49:00,71.6,69.8,30.26,South,182,0.0,0.0,94,0.00,,,0.00,VWS V14.01,2013-07-17 10:49:00,
2013-07-17 06:54:00,71.6,69.8,30.26,South,182,0.0,0.0,94,0.00,,,0.00,VWS V14.01,2013-07-17 10:54:00,
2013-07-17 06:59:00,71.8,70.3,30.26,South,182,0.0,0.0,95,0.00,,,0.00,VWS V14.01,2013-07-17 10:59:00,
2013-07-17 07:00:00,71.8,70.3,30.26,South,182,0.0,0.0,95,0.00,,OVC018,0.00,VWS V14.01,2013-07-17 11:00:00,
2013-07-17 07:04:00,72.0,70.5,30.26,South,182,0.0,0.0,95,0.00,,,0.00,VWS V14.01,2013-07-17 11:04:00,
2013-07-17 07:09:00,72.3,70.8,30.26,South,182,0.0,0.0,95,0.00,,,0.00,VWS V14.01,2013-07-17 11:09:00,
2013-07-17 07:14:00,72.5,71.0,30.27,South,182,0.0,0.0,95,0.00,,,0.00,VWS V14.01,2013-07-17 11:14:00,
2013-07-17 07:15:00,72.5,71.0,30.27,South,182,0.0,0.0,95,0.00,,OVC018,0.00,VWS V14.01,2013-07-17 11:15:00,
2013-07-17 07:19:00,72.7,71.2,30.27,South,182,0.0,0.0,95,0.00,,,0.00,VWS V14.01,2013-07-17 11:19:00,
2013-07-17 07:24:00,72.8,71.3,30.27,South,182,0.0,0.0,95,0.00,,,0.00,VWS V14.01,2013-07-17 11:24:00,
2013-07-17 07:29:00,73.0,71.5,30.27,South,182,0.0,0.0,95,0.00,,,0.00,VWS V14.01,2013-07-17 11:29:00,
2013-07-17 07:30:00,73.0,71.5,30.27,South,182,0.0,0.0,95,0.00,,OVC018,0.00,VWS V14.01,2013-07-17 11:30:00,
2013-07-17 07:34:00,73.3,71.8,30.27,South,182,0.0,0.0,95,0.00,,,0.00,VWS V14.01,2013-07-17 11:34:00,
2013-07-17 07:39:00,73.9,72.1,30.27,South,182,0.0,0.0,94,0.00,,,0.00,VWS V14.01,2013-07-17 11:39:00,
2013-07-17 07:44:00,74.6,72.8,30.27,South,182,0.0,0.0,94,0.00,,,0.00,VWS V14.01,2013-07-17 11:44:00,
2013-07-17 07:45:00,74.6,72.8,30.27,South,182,0.0,0.0,94,0.00,,OVC018,0.00,VWS V14.01,2013-07-17 11:45:00,
2013-07-17 07:49:00,75.3,73.1,30.27,South,182,0.0,0.0,93,0.00,,,0.00,VWS V14.01,2013-07-17 11:49:00,
2013-07-17 07:54:00,76.1,73.3,30.27,South,182,0.0,0.0,91,0.00,,,0.00,VWS V14.01,2013-07-17 11:54:00,
2013-07-17 07:59:00,77.0,73.2,30.27,South,182,0.0,0.0,88,0.00,,,0.00,VWS V14.01,2013-07-17 11:59:00,
2013-07-17 08:00:00,77.0,73.2,30.27,South,182,0.0,0.0,88,0.00,,OVC018,0.00,VWS V14.01,2013-07-17 12:00:00,
2013-07-17 08:04:00,77.6,73.4,30.27,South,182,0.0,0.0,87,0.00,,CLR,0.00,VWS V14.01,2013-07-17 12:04:00,
2013-07-17 08:09:00,78.5,73.6,30.27,South,182,0.0,0.0,85,0.00,,CLR,0.00,VWS V14.01,2013-07-17 12:09:00,
2013-07-17 08:14:00,79.4,74.2,30.28,South,182,0.0,0.0,84,0.00,,CLR,0.00,VWS V14.01,2013-07-17 12:14:00,
2013-07-17 08:15:00,79.4,74.2,30.28,South,182,0.0,0.0,84,0.00,,OVC018,0.00,VWS V14.01,2013-07-17 12:15:00,
2013-07-17 08:19:00,80.1,73.8,30.28,NW,304,0.0,1.0,81,0.00,,CLR,0.00,VWS V14.01,2013-07-17 12:19:00,
2013-07-17 08:24:00,80.7,73.2,30.28,NW,313,0.0,1.0,78,0.00,,CLR,0.00,VWS V14.01,2013-07-17 12:24:00,
2013-07-17 08:29:00,81.4,73.1,30.27,NW,313,0.0,0.0,76,0.00,,CLR,0.00,VWS V14.01,2013-07-17 12:29:00,
2013-07-17 08:30:00,81.4,73.1,30.27,NW,313,0.0,0.0,76,0.00,,OVC018,0.00,VWS V14.01,2013-07-17 12:30:00,
2013-07-17 08:34:00,82.0,73.3,30.27,NW,316,0.0,3.0,75,0.00,,CLR,0.00,VWS V14.01,2013-07-17 12:34:00,
2013-07-17 08:39:00,82.6,73.5,30.27,NW,316,0.0,3.0,74,0.00,,CLR,0.00,VWS V14.01,2013-07-17 12:39:00,
2013-07-17 08:44:00,83.4,73.8,30.28,NW,316,0.0,3.0,73,0.00,,CLR,0.00,VWS V14.01,2013-07-17 12:44:00,
2013-07-17 08:45:00,83.4,73.4,30.28,NW,316,0.0,3.0,72,0.00,,OVC018,0.00,VWS V14.01,2013-07-17 12:45:00,
2013-07-17 08:49:00,84.3,74.3,30.28,NW,322,0.0,2.0,72,0.00,,CLR,0.00,VWS V14.01,2013-07-17 12:49:00,
2013-07-17 08:54:00,85.1,74.2,30.28,NW,322,0.0,2.0,70,0.00,,CLR,0.00,VWS V14.01,2013-07-17 12:54:00,
2013-07-17 08:59:00,85.5,73.3,30.28,North,352,0.0,6.0,67,0.00,,CLR,0.00,VWS V14.01,2013-07-17 12:59:00,
2013-07-17 09:00:00,85.5,73.3,30.28,North,352,0.0,6.0,67,0.00,,OVC018,0.00,VWS V14.01,2013-07-17 13:00:00,
2013-07-17 09:04:00,85.5,74.2,30.28,North,353,2.0,6.0,69,0.00,,CLR,0.00,VWS V14.01,2013-07-17 13:04:00,
2013-07-17 09:09:00,85.7,74.4,30.28,North,0,0.0,5.0,69,0.00,,CLR,0.00,VWS V14.01,2013-07-17 13:09:00,
2013-07-17 09:14:00,85.7,74.4,30.28,North,359,0.0,3.0,69,0.00,,CLR,0.00,VWS V14.01,2013-07-17 13:14:00,
2013-07-17 09:15:00,85.5,74.2,30.28,North,357,0.0,3.0,69,0.00,,OVC018,0.00,VWS V14.01,2013-07-17 13:15:00,
2013-07-17 09:19:00,85.5,74.2,30.28,North,359,0.0,0.0,69,0.00,,CLR,0.00,VWS V14.01,2013-07-17 13:19:00,
2013-07-17 09:24:00,85.7,74.4,30.28,NW,315,0.0,4.0,69,0.00,,CLR,0.00,VWS V14.01,2013-07-17 13:24:00,
2013-07-17 09:29:00,86.1,74.8,30.28,NW,316,0.0,3.0,69,0.00,,CLR,0.00,VWS V14.01,2013-07-17 13:29:00,
2013-07-17 09:30:00,86.1,74.8,30.28,NW,316,0.0,3.0,69,0.00,,OVC018,0.00,VWS V14.01,2013-07-17 13:30:00,
2013-07-17 09:34:00,86.7,74.0,30.28,NW,325,0.0,3.0,66,0.00,,CLR,0.00,VWS V14.01,2013-07-17 13:34:00,
2013-07-17 09:39:00,87.0,74.3,30.28,North,354,0.0,5.0,66,0.00,,CLR,0.00,VWS V14.01,2013-07-17 13:39:00,
2013-07-17 09:44:00,87.4,74.7,30.28,North,354,0.0,2.0,66,0.00,,CLR,0.00,VWS V14.01,2013-07-17 13:44:00,
2013-07-17 09:45:00,87.4,74.7,30.28,North,354,0.0,1.0,66,0.00,,OVC018,0.00,VWS V14.01,2013-07-17 13:45:00,
2013-07-17 09:49:00,87.8,74.1,30.28,North,352,0.0,5.0,64,0.00,,CLR,0.00,VWS V14.01,2013-07-17 13:49:00,
2013-07-17 09:54:00,88.0,75.2,30.28,NNE,27,0.0,5.0,66,0.00,,CLR,0.00,VWS V14.01,2013-07-17 13:54:00,
2013-07-17 09:59:00,88.2,75.4,30.27,North,0,0.0,5.0,66,0.00,,CLR,0.00,VWS V14.01,2013-07-17 13:59:00,
2013-07-17 10:00:00,88.2,75.4,30.27,North,0,0.0,5.0,66,0.00,,OVC018,0.00,VWS V14.01,2013-07-17 14:00:00,
2013-07-17 10:04:00,88.2,74.5,30.27,North,354,0.0,4.0,64,0.00,,CLR,0.00,VWS V14.01,2013-07-17 14:04:00,
2013-07-17 10:09:00,88.4,75.1,30.27,North,350,0.0,5.0,65,0.00,,CLR,0.00,VWS V14.01,2013-07-17 14:09:00,
2013-07-17 10:14:00,88.6,74.9,30.27,NNW,343,0.0,5.0,64,0.00,,CLR,0.00,VWS V14.01,2013-07-17 14:14:00,
2013-07-17 10:15:00,88.6,74.4,30.27,NNW,343,0.0,5.0,63,0.00,,OVC018,0.00,VWS V14.01,2013-07-17 14:15:00,
2013-07-17 10:19:00,89.0,75.7,30.27,NNW,343,0.0,5.0,65,0.00,,CLR,0.00,VWS V14.01,2013-07-17 14:19:00,
2013-07-17 10:24:00,89.3,75.5,30.27,NNW,347,0.0,3.0,64,0.00,,CLR,0.00,VWS V14.01,2013-07-17 14:24:00,
2013-07-17 10:29:00,89.7,75.0,30.27,NNE,24,0.0,6.0,62,0.00,,CLR,0.00,VWS V14.01,2013-07-17 14:29:00,
2013-07-17 10:30:00,89.7,75.0,30.27,North,10,0.0,6.0,62,0.00,,OVC018,0.00,VWS V14.01,2013-07-17 14:30:00,
2013-07-17 10:34:00,89.7,75.0,30.27,NNE,16,0.0,6.0,62,0.00,,CLR,0.00,VWS V14.01,2013-07-17 14:34:00,
2013-07-17 10:39:00,90.1,76.3,30.27,NNE,25,0.0,5.0,64,0.00,,CLR,0.00,VWS V14.01,2013-07-17 14:39:00,
2013-07-17 10:44:00,90.7,76.8,30.27,NNE,23,0.0,5.0,64,0.00,,CLR,0.00,VWS V14.01,2013-07-17 14:44:00,
2013-07-17 10:45:00,90.7,76.8,30.27,NNE,23,0.0,5.0,64,0.00,,OVC018,0.00,VWS V14.01,2013-07-17 14:45:00,
2013-07-17 10:49:00,91.2,76.8,30.27,NNE,23,0.0,5.0,63,0.00,,CLR,0.00,VWS V14.01,2013-07-17 14:49:00,
2013-07-17 10:54:00,91.4,76.1,30.27,NNE,14,0.0,2.0,61,0.00,,CLR,0.00,VWS V14.01,2013-07-17 14:54:00,
2013-07-17 10:59:00,92.1,77.2,30.26,NE,55,0.0,2.0,62,0.00,,CLR,0.00,VWS V14.01,2013-07-17 14:59:00,
2013-07-17 11:00:00,92.1,76.7,30.26,ENE,75,2.0,2.0,61,0.00,,OVC018,0.00,VWS V14.01,2013-07-17 15:00:00,
2013-07-17 11:04:00,92.5,76.6,30.26,NNW,347,3.0,6.0,60,0.00,,FEW027,0.00,VWS V14.01,2013-07-17 15:04:00,
2013-07-17 11:09:00,92.3,75.9,30.26,ENE,78,0.0,6.0,59,0.00,,FEW027,0.00,VWS V14.01,2013-07-17 15:09:00,
2013-07-17 11:14:00,91.8,75.4,30.26,NNE,32,1.0,7.0,59,0.00,,FEW027,0.00,VWS V14.01,2013-07-17 15:14:00,
2013-07-17 11:15:00,91.8,75.4,30.26,NNE,32,2.0,7.0,59,0.00,,OVC018,0.00,VWS V14.01,2013-07-17 15:15:00,
2013-07-17 11:19:00,92.3,75.9,30.26,NNE,27,0.0,7.0,59,0.00,,FEW027,0.00,VWS V14.01,2013-07-17 15:19:00,
2013-07-17 11:24:00,92.7,75.8,30.26,NNE,32,0.0,3.0,58,0.00,,FEW027,0.00,VWS V14.01,2013-07-17 15:24:00,
2013-07-17 11:29:00,92.9,75.9,30.26,NE,44,0.0,5.0,58,0.00,,FEW027,0.00,VWS V14.01,2013-07-17 15:29:00,
2013-07-17 11:30:00,92.9,76.5,30.26,NE,44,0.0,5.0,59,0.00,,OVC018,0.00,VWS V14.01,2013-07-17 15:30:00,
2013-07-17 11:35:00,92.9,76.5,30.26,North,352,0.0,5.0,59,0.00,,FEW027,0.00,VWS V14.01,2013-07-17 15:35:00,
2013-07-17 11:40:00,93.2,76.2,30.26,NNE,27,1.0,7.0,58,0.00,,FEW027,0.00,VWS V14.01,2013-07-17 15:40:00,
2013-07-17 11:45:00,92.9,75.4,30.26,NNW,343,0.0,7.0,57,0.00,,FEW027,0.00,VWS V14.01,2013-07-17 15:45:00,
2013-07-17 11:50:00,92.7,75.2,30.26,NNW,330,2.0,6.0,57,0.00,,FEW027,0.00,VWS V14.01,2013-07-17 15:50:00,
2013-07-17 11:55:00,92.9,75.9,30.26,NE,40,1.0,6.0,58,0.00,,FEW027,0.00,VWS V14.01,2013-07-17 15:55:00,
2013-07-17 12:00:00,93.4,75.9,30.25,North,4,0.0,6.0,57,0.00,,FEW027,0.00,VWS V14.01,2013-07-17 16:00:00,
2013-07-17 12:05:00,93.2,75.7,30.25,NW,325,0.0,6.0,57,0.00,,FEW031,0.00,VWS V14.01,2013-07-17 16:05:00,
2013-07-17 12:10:00,92.9,75.4,30.25,NE,38,5.0,6.0,57,0.00,,FEW031,0.00,VWS V14.01,2013-07-17 16:10:00,
2013-07-17 12:15:00,93.4,77.9,30.25,ENE,69,0.0,6.0,61,0.00,,FEW031,0.00,VWS V14.01,2013-07-17 16:15:00,
2013-07-17 12:20:00,93.6,76.1,30.25,NE,34,0.0,7.0,57,0.00,,FEW031,0.00,VWS V14.01,2013-07-17 16:20:00,
2013-07-17 12:25:00,93.6,76.1,30.25,NNE,31,0.0,7.0,57,0.00,,FEW031,0.00,VWS V14.01,2013-07-17 16:25:00,
2013-07-17 12:30:00,93.6,77.1,30.25,NNE,32,0.0,3.0,59,0.00,,FEW031,0.00,VWS V14.01,2013-07-17 16:30:00,
2013-07-17 12:35:00,93.6,75.0,30.25,NNE,17,0.0,3.0,55,0.00,,FEW031,0.00,VWS V14.01,2013-07-17 16:35:00,
2013-07-17 12:40:00,93.6,76.6,30.25,NE,48,0.0,3.0,58,0.00,,FEW031,0.00,VWS V14.01,2013-07-17 16:40:00,
2013-07-17 12:45:00,93.8,75.2,30.25,NNE,25,0.0,3.0,55,0.00,,FEW031,0.00,VWS V14.01,2013-07-17 16:45:00,
2013-07-17 12:50:00,94.0,75.9,30.25,NNE,32,0.0,5.0,56,0.00,,FEW031,0.00,VWS V14.01,2013-07-17 16:50:00,
2013-07-17 12:55:00,93.8,75.2,30.25,NNE,27,0.0,5.0,55,0.00,,FEW031,0.00,VWS V14.01,2013-07-17 16:55:00,
2013-07-17 13:00:00,93.6,75.0,30.25,NNE,27,0.0,5.0,55,0.00,,FEW031,0.00,VWS V14.01,2013-07-17 17:00:00,
2013-07-17 13:05:00,93.2,75.2,30.25,NNW,340,3.0,6.0,56,0.00,,CLR,0.00,VWS V14.01,2013-07-17 17:05:00,
2013-07-17 13:10:00,93.2,73.5,30.25,NNW,343,2.0,6.0,53,0.00,,CLR,0.00,VWS V14.01,2013-07-17 17:10:00,
2013-07-17 13:15:00,92.9,73.8,30.25,North,349,0.0,6.0,54,0.00,,CLR,0.00,VWS V14.01,2013-07-17 17:15:00,
2013-07-17 13:20:00,92.9,73.3,30.25,North,0,0.0,6.0,53,0.00,,CLR,0.00,VWS V14.01,2013-07-17 17:20:00,
2013-07-17 13:25:00,92.7,73.1,30.25,West,280,0.0,5.0,53,0.00,,CLR,0.00,VWS V14.01,2013-07-17 17:25:00,
2013-07-17 13:30:00,93.2,74.6,30.24,NNE,30,0.0,4.0,55,0.00,,CLR,0.00,VWS V14.01,2013-07-17 17:30:00,
2013-07-17 13:35:00,92.9,73.8,30.24,NNW,347,0.0,5.0,54,0.00,,CLR,0.00,VWS V14.01,2013-07-17 17:35:00,
2013-07-17 13:40:00,92.9,73.8,30.24,North,356,0.0,3.0,54,0.00,,CLR,0.00,VWS V14.01,2013-07-17 17:40:00,
2013-07-17 13:45:00,93.2,74.6,30.24,North,6,0.0,1.0,55,0.00,,CLR,0.00,VWS V14.01,2013-07-17 17:45:00,
2013-07-17 13:50:00,92.9,74.4,30.24,NNW,330,1.0,5.0,55,0.00,,CLR,0.00,VWS V14.01,2013-07-17 17:50:00,
2013-07-17 13:55:00,92.5,75.1,30.24,North,349,5.0,6.0,57,0.00,,CLR,0.00,VWS V14.01,2013-07-17 17:55:00,
2013-07-17 14:00:00,92.1,73.6,30.23,North,357,0.0,6.0,55,0.00,,CLR,0.00,VWS V14.01,2013-07-17 18:00:00,
2013-07-17 14:05:00,91.8,72.2,30.23,NE,37,0.0,6.0,53,0.00,,BKN055,0.00,VWS V14.01,2013-07-17 18:05:00,
2013-07-17 14:10:00,92.1,72.5,30.23,WNW,284,0.0,1.0,53,0.00,,BKN055,0.00,VWS V14.01,2013-07-17 18:10:00,
2013-07-17 14:15:00,92.1,73.1,30.23,North,359,0.0,6.0,54,0.00,,BKN055,0.00,VWS V14.01,2013-07-17 18:15:00,
2013-07-17 14:20:00,92.7,73.1,30.23,North,357,0.0,2.0,53,0.00,,BKN055,0.00,VWS V14.01,2013-07-17 18:20:00,
2013-07-17 14:25:00,92.5,74.0,30.23,North,356,0.0,2.0,55,0.00,,BKN055,0.00,VWS V14.01,2013-07-17 18:25:00,
2013-07-17 14:30:00,91.6,73.7,30.22,North,356,0.0,1.0,56,0.00,,BKN055,0.00,VWS V14.01,2013-07-17 18:30:00,
2013-07-17 14:35:00,91.4,73.5,30.22,North,356,0.0,0.0,56,0.00,,BKN055,0.00,VWS V14.01,2013-07-17 18:35:00,
2013-07-17 14:40:00,92.1,73.6,30.22,North,359,0.0,0.0,55,0.00,,BKN055,0.00,VWS V14.01,2013-07-17 18:40:00,
2013-07-17 14:45:00,92.5,72.9,30.21,North,8,0.0,1.0,53,0.00,,BKN055,0.00,VWS V14.01,2013-07-17 18:45:00,
2013-07-17 14:50:00,92.5,74.0,30.21,North,6,0.0,1.0,55,0.00,,BKN055,0.00,VWS V14.01,2013-07-17 18:50:00,
2013-07-17 14:55:00,92.5,75.6,30.21,North,11,0.0,1.0,58,0.00,,BKN055,0.00,VWS V14.01,2013-07-17 18:55:00,
2013-07-17 15:00:00,92.9,75.4,30.20,NNE,21,0.0,5.0,57,0.00,,BKN055,0.00,VWS V14.01,2013-07-17 19:00:00,
2013-07-17 15:05:00,93.2,73.0,30.20,NNE,24,0.0,5.0,52,0.00,,SCT080,0.00,VWS V14.01,2013-07-17 19:05:00,
2013-07-17 15:10:00,93.2,74.6,30.20,NNE,28,0.0,5.0,55,0.00,,SCT080,0.00,VWS V14.01,2013-07-17 19:10:00,
2013-07-17 15:15:00,93.8,74.7,30.20,NNE,16,0.0,6.0,54,0.00,,SCT080,0.00,VWS V14.01,2013-07-17 19:15:00,
2013-07-17 15:20:00,94.5,75.8,30.20,NNE,20,2.0,3.0,55,0.00,,SCT080,0.00,VWS V14.01,2013-07-17 19:20:00,
2013-07-17 15:25:00,94.3,74.0,30.20,NE,37,0.0,6.0,52,0.00,,SCT080,0.00,VWS V14.01,2013-07-17 19:25:00,
2013-07-17 15:30:00,94.0,74.8,30.20,NNE,28,0.0,3.0,54,0.00,,SCT080,0.00,VWS V14.01,2013-07-17 19:30:00,
2013-07-17 15:35:00,93.8,72.9,30.20,NE,40,0.0,2.0,51,0.00,,SCT080,0.00,VWS V14.01,2013-07-17 19:35:00,
2013-07-17 15:40:00,93.2,73.0,30.20,North,0,0.0,2.0,52,0.00,,SCT080,0.00,VWS V14.01,2013-07-17 19:40:00,
2013-07-17 15:45:00,93.2,74.6,30.19,North,10,0.0,6.0,55,0.00,,SCT080,0.00,VWS V14.01,2013-07-17 19:45:00,
2013-07-17 15:50:00,93.8,74.7,30.19,ENE,65,0.0,7.0,54,0.00,,SCT080,0.00,VWS V14.01,2013-07-17 19:50:00,
2013-07-17 15:55:00,94.0,73.7,30.19,NNE,23,0.0,5.0,52,0.00,,SCT080,0.00,VWS V14.01,2013-07-17 19:55:00,
2013-07-17 16:00:00,93.8,74.1,30.19,North,359,0.0,5.0,53,0.00,,SCT080,0.00,VWS V14.01,2013-07-17 20:00:00,
2013-07-17 16:05:00,94.3,74.6,30.19,North,353,1.0,3.0,53,0.00,,SCT047,0.00,VWS V14.01,2013-07-17 20:05:00,
2013-07-17 16:10:00,94.3,74.0,30.19,NNW,340,0.0,6.0,52,0.00,,SCT047,0.00,VWS V14.01,2013-07-17 20:10:00,
2013-07-17 16:15:00,94.0,72.5,30.19,North,354,0.0,4.0,50,0.00,,SCT047,0.00,VWS V14.01,2013-07-17 20:15:00,
2013-07-17 16:20:00,94.3,74.0,30.19,NNE,30,1.0,4.0,52,0.00,,SCT047,0.00,VWS V14.01,2013-07-17 20:20:00,
2013-07-17 16:25:00,94.0,71.3,30.19,North,352,0.0,6.0,48,0.00,,SCT047,0.00,VWS V14.01,2013-07-17 20:25:00,
2013-07-17 16:30:00,93.8,72.9,30.19,NNW,340,0.0,7.0,51,0.00,,SCT047,0.00,VWS V14.01,2013-07-17 20:30:00,
2013-07-17 16:35:00,94.0,73.7,30.19,NNE,14,3.0,7.0,52,0.00,,SCT047,0.00,VWS V14.01,2013-07-17 20:35:00,
2013-07-17 16:40:00,94.3,72.2,30.19,NNW,339,0.0,3.0,49,0.00,,SCT047,0.00,VWS V14.01,2013-07-17 20:40:00,
2013-07-17 16:45:00,94.7,73.8,30.18,North,3,0.0,2.0,51,0.00,,SCT047,0.00,VWS V14.01,2013-07-17 20:45:00,
2013-07-17 16:50:00,95.1,74.1,30.18,North,1,0.0,2.0,51,0.00,,SCT047,0.00,VWS V14.01,2013-07-17 20:50:00,
2013-07-17 16:55:00,95.1,71.7,30.18,North,350,0.0,7.0,47,0.00,,SCT047,0.00,VWS V14.01,2013-07-17 20:55:00,
2013-07-17 17:00:00,94.9,72.8,30.17,NNW,336,1.0,7.0,49,0.00,,SCT047,0.00,VWS V14.01,2013-07-17 21:00:00,
2013-07-17 17:05:00,94.3,71.0,30.17,NNW,330,3.0,6.0,47,0.00,,FEW100,0.00,VWS V14.01,2013-07-17 21:05:00,
2013-07-17 17:10:00,94.0,71.9,30.17,NNE,20,0.0,7.0,49,0.00,,FEW100,0.00,VWS V14.01,2013-07-17 21:10:00,
2013-07-17 17:15:00,94.0,71.9,30.17,NE,37,0.0,5.0,49,0.00,,FEW100,0.00,VWS V14.01,2013-07-17 21:15:00,
2013-07-17 17:20:00,94.0,72.5,30.17,North,0,1.0,6.0,50,0.00,,FEW100,0.00,VWS V14.01,2013-07-17 21:20:00,
2013-07-17 17:25:00,94.0,73.1,30.17,North,0,0.0,6.0,51,0.00,,FEW100,0.00,VWS V14.01,2013-07-17 21:25:00,
2013-07-17 17:30:00,94.3,73.4,30.16,North,11,2.0,6.0,51,0.00,,FEW100,0.00,VWS V14.01,2013-07-17 21:30:00,
2013-07-17 17:35:00,94.3,73.4,30.16,NE,38,1.0,6.0,51,0.00,,FEW100,0.00,VWS V14.01,2013-07-17 21:35:00,
2013-07-17 17:40:00,94.5,73.6,30.16,NNE,25,0.0,6.0,51,0.00,,FEW100,0.00,VWS V14.01,2013-07-17 21:40:00,
2013-07-17 17:45:00,94.3,72.2,30.15,NNE,25,0.0,6.0,49,0.00,,FEW100,0.00,VWS V14.01,2013-07-17 21:45:00,
2013-07-17 17:50:00,94.5,72.4,30.15,North,0,0.0,5.0,49,0.00,,FEW100,0.00,VWS V14.01,2013-07-17 21:50:00,
2013-07-17 17:55:00,94.3,72.2,30.15,NNE,32,0.0,5.0,49,0.00,,FEW100,0.00,VWS V14.01,2013-07-17 21:55:00,
2013-07-17 18:00:00,94.0,70.7,30.15,NW,326,0.0,5.0,47,0.00,,FEW100,0.00,VWS V14.01,2013-07-17 22:00:00,
2013-07-17 18:05:00,93.8,72.4,30.15,NNW,344,0.0,5.0,50,0.00,,FEW100,0.00,VWS V14.01,2013-07-17 22:05:00,
2013-07-17 18:10:00,93.8,72.9,30.15,NE,45,0.0,4.0,51,0.00,,FEW100,0.00,VWS V14.01,2013-07-17 22:10:00,
2013-07-17 18:15:00,93.4,73.2,30.15,NE,48,0.0,3.0,52,0.00,,CLR,0.00,VWS V14.01,2013-07-17 22:15:00,
2013-07-17 18:20:00,93.2,72.4,30.15,NE,37,1.0,6.0,51,0.00,,CLR,0.00,VWS V14.01,2013-07-17 22:20:00,
2013-07-17 18:25:00,92.7,72.5,30.15,NE,41,0.0,6.0,52,0.00,,CLR,0.00,VWS V14.01,2013-07-17 22:25:00,
2013-07-17 18:30:00,92.3,72.1,30.15,NE,40,0.0,3.0,52,0.00,,CLR,0.00,VWS V14.01,2013-07-17 22:30:00,
2013-07-17 18:35:00,91.8,72.8,30.15,NE,40,0.0,2.0,54,0.00,,CLR,0.00,VWS V14.01,2013-07-17 22:35:00,
2013-07-17 18:40:00,91.4,72.4,30.15,NE,40,0.0,2.0,54,0.00,,CLR,0.00,VWS V14.01,2013-07-17 22:40:00,
2013-07-17 18:45:00,91.2,72.8,30.15,NE,41,0.0,2.0,55,0.00,,CLR,0.00,VWS V14.01,2013-07-17 22:45:00,
2013-07-17 18:50:00,90.7,72.9,30.15,NNE,30,1.0,3.0,56,0.00,,CLR,0.00,VWS V14.01,2013-07-17 22:50:00,
2013-07-17 18:55:00,90.5,73.7,30.15,NNE,30,0.0,3.0,58,0.00,,CLR,0.00,VWS V14.01,2013-07-17 22:55:00,
2013-07-17 19:00:00,90.3,72.5,30.15,NNE,31,0.0,3.0,56,0.00,,CLR,0.00,VWS V14.01,2013-07-17 23:00:00,
2013-07-17 19:05:00,89.9,73.2,30.15,NNE,31,0.0,2.0,58,0.00,,CLR,0.00,VWS V14.01,2013-07-17 23:05:00,
2013-07-17 19:10:00,89.7,72.4,30.15,NNE,31,0.0,0.0,57,0.00,,CLR,0.00,VWS V14.01,2013-07-17 23:10:00,
2013-07-17 19:15:00,89.5,73.3,30.14,NNE,31,0.0,0.0,59,0.00,,CLR,0.00,VWS V14.01,2013-07-17 23:15:00,
2013-07-17 19:20:00,89.3,73.1,30.14,North,6,0.0,1.0,59,0.00,,CLR,0.00,VWS V14.01,2013-07-17 23:20:00,
2013-07-17 19:25:00,88.8,73.1,30.14,North,4,0.0,1.0,60,0.00,,CLR,0.00,VWS V14.01,2013-07-17 23:25:00,
2013-07-17 19:30:00,88.6,72.9,30.14,North,4,0.0,2.0,60,0.00,,CLR,0.00,VWS V14.01,2013-07-17 23:30:00,
2013-07-17 19:35:00,88.4,73.2,30.14,North,4,0.0,2.0,61,0.00,,CLR,0.00,VWS V14.01,2013-07-17 23:35:00,
2013-07-17 19:40:00,88.0,72.9,30.14,North,4,0.0,1.0,61,0.00,,CLR,0.00,VWS V14.01,2013-07-17 23:40:00,
2013-07-17 19:45:00,87.8,72.7,30.15,North,4,0.0,1.0,61,0.00,,CLR,0.00,VWS V14.01,2013-07-17 23:45:00,
2013-07-17 19:50:00,87.8,73.2,30.15,North,4,0.0,0.0,62,0.00,,CLR,0.00,VWS V14.01,2013-07-17 23:50:00,
2013-07-17 19:55:00,87.6,73.0,30.15,North,4,0.0,1.0,62,0.00,,CLR,0.00,VWS V14.01,2013-07-17 23:55:00,
2013-07-17 20:00:00,87.4,72.8,30.14,North,4,0.0,1.0,62,0.00,,CLR,0.00,VWS V14.01,2013-07-18 00:00:00,
2013-07-17 20:05:00,87.2,73.1,30.14,North,4,0.0,0.0,63,0.00,,CLR,0.00,VWS V14.01,2013-07-18 00:05:00,
2013-07-17 20:10:00,87.0,73.4,30.14,North,4,0.0,0.0,64,0.00,,CLR,0.00,VWS V14.01,2013-07-18 00:10:00,
2013-07-17 20:15:00,86.5,72.9,30.14,North,4,0.0,0.0,64,0.00,,CLR,0.00,VWS V14.01,2013-07-18 00:15:00,
2013-07-17 20:20:00,86.5,72.9,30.14,North,4,0.0,0.0,64,0.00,,CLR,0.00,VWS V14.01,2013-07-18 00:20:00,
2013-07-17 20:25:00,86.3,73.2,30.14,North,4,0.0,0.0,65,0.00,,CLR,0.00,VWS V14.01,2013-07-18 00:25:00,
2013-07-17 20:30:00,86.1,73.4,30.14,North,4,0.0,0.0,66,0.00,,CLR,0.00,VWS V14.01,2013-07-18 00:30:00,
2013-07-17 20:35:00,85.9,73.7,30.14,North,4,0.0,0.0,67,0.00,,CLR,0.00,VWS V14.01,2013-07-18 00:35:00,
2013-07-17 20:40:00,85.5,74.2,30.14,North,4,0.0,0.0,69,0.00,,CLR,0.00,VWS V14.01,2013-07-18 00:40:00,
2013-07-17 20:45:00,85.1,74.2,30.14,North,4,0.0,0.0,70,0.00,,CLR,0.00,VWS V14.01,2013-07-18 00:45:00,
2013-07-17 20:50:00,84.7,74.3,30.14,North,4,0.0,0.0,71,0.00,,CLR,0.00,VWS V14.01,2013-07-18 00:50:00,
2013-07-17 20:55:00,84.5,74.1,30.14,North,4,0.0,0.0,71,0.00,,CLR,0.00,VWS V14.01,2013-07-18 00:55:00,
2013-07-17 21:00:00,84.1,73.7,30.13,North,4,0.0,0.0,71,0.00,,CLR,0.00,VWS V14.01,2013-07-18 01:00:00,
2013-07-17 21:05:00,83.8,73.4,30.13,North,4,0.0,0.0,71,0.00,,CLR,0.00,VWS V14.01,2013-07-18 01:05:00,
2013-07-17 21:10:00,83.6,73.6,30.13,North,4,0.0,0.0,72,0.00,,CLR,0.00,VWS V14.01,2013-07-18 01:10:00,
2013-07-17 21:15:00,83.2,73.7,30.13,North,4,0.0,0.0,73,0.00,,CLR,0.00,VWS V14.01,2013-07-18 01:15:00,
2013-07-17 21:20:00,82.8,73.7,30.13,North,4,0.0,0.0,74,0.00,,CLR,0.00,VWS V14.01,2013-07-18 01:20:00,
2013-07-17 21:25:00,82.4,73.7,30.13,North,4,0.0,0.0,75,0.00,,CLR,0.00,VWS V14.01,2013-07-18 01:25:00,
2013-07-17 21:30:00,82.0,73.7,30.14,North,4,0.0,0.0,76,0.00,,CLR,0.00,VWS V14.01,2013-07-18 01:30:00,
2013-07-17 21:35:00,81.8,73.5,30.14,North,4,0.0,0.0,76,0.00,,CLR,0.00,VWS V14.01,2013-07-18 01:35:00,
2013-07-17 21:40:00,81.4,73.9,30.14,North,4,0.0,0.0,78,0.00,,CLR,0.00,VWS V14.01,2013-07-18 01:40:00,
2013-07-17 21:45:00,81.2,73.7,30.14,North,4,0.0,0.0,78,0.00,,CLR,0.00,VWS V14.01,2013-07-18 01:45:00,
2013-07-17 21:51:00,80.9,73.8,30.14,North,4,0.0,0.0,79,0.00,,CLR,0.00,VWS V14.01,2013-07-18 01:51:00,
2013-07-17 21:56:00,80.5,73.8,30.14,North,4,0.0,0.0,80,0.00,,CLR,0.00,VWS V14.01,2013-07-18 01:56:00,
2013-07-17 22:00:00,80.1,73.4,30.15,North,4,0.0,0.0,80,0.00,,OVC018,0.00,VWS V14.01,2013-07-18 02:00:00,
2013-07-17 22:01:00,80.1,73.4,30.15,North,4,0.0,0.0,80,0.00,,CLR,0.00,VWS V14.01,2013-07-18 02:01:00,
2013-07-17 22:06:00,79.9,73.6,30.15,North,4,0.0,0.0,81,0.00,,CLR,0.00,VWS V14.01,2013-07-18 02:06:00,
2013-07-17 22:11:00,79.8,73.4,30.15,North,4,0.0,0.0,81,0.00,,CLR,0.00,VWS V14.01,2013-07-18 02:11:00,
2013-07-17 22:15:00,79.6,73.3,30.15,North,4,0.0,0.0,81,0.00,,OVC018,0.00,VWS V14.01,2013-07-18 02:15:00,
2013-07-17 22:16:00,79.6,73.6,30.15,North,4,0.0,0.0,82,0.00,,CLR,0.00,VWS V14.01,2013-07-18 02:16:00,
2013-07-17 22:21:00,79.4,73.4,30.15,North,4,0.0,0.0,82,0.00,,CLR,0.00,VWS V14.01,2013-07-18 02:21:00,
2013-07-17 22:26:00,79.2,73.6,30.15,North,4,0.0,0.0,83,0.00,,CLR,0.00,VWS V14.01,2013-07-18 02:26:00,
2013-07-17 22:30:00,79.0,73.8,30.16,North,4,0.0,0.0,84,0.00,,OVC018,0.00,VWS V14.01,2013-07-18 02:30:00,
2013-07-17 22:31:00,79.0,73.8,30.16,North,4,0.0,0.0,84,0.00,,CLR,0.00,VWS V14.01,2013-07-18 02:31:00,
2013-07-17 22:36:00,78.6,73.4,30.16,North,4,0.0,0.0,84,0.00,,CLR,0.00,VWS V14.01,2013-07-18 02:36:00,
2013-07-17 22:41:00,78.6,73.7,30.16,North,4,0.0,0.0,85,0.00,,CLR,0.00,VWS V14.01,2013-07-18 02:41:00,
2013-07-17 22:45:00,78.5,73.6,30.17,North,4,0.0,0.0,85,0.00,,OVC018,0.00,VWS V14.01,2013-07-18 02:45:00,
2013-07-17 22:46:00,78.5,73.6,30.17,North,4,0.0,0.0,85,0.00,,CLR,0.00,VWS V14.01,2013-07-18 02:46:00,
2013-07-17 22:51:00,78.1,73.2,30.17,North,4,0.0,0.0,85,0.00,,CLR,0.00,VWS V14.01,2013-07-18 02:51:00,
2013-07-17 22:56:00,78.1,73.6,30.17,North,4,0.0,0.0,86,0.00,,CLR,0.00,VWS V14.01,2013-07-18 02:56:00,
2013-07-17 23:00:00,77.9,73.4,30.17,North,4,0.0,0.0,86,0.00,,OVC018,0.00,VWS V14.01,2013-07-18 03:00:00,
2013-07-17 23:01:00,77.9,73.4,30.17,North,4,0.0,0.0,86,0.00,,CLR,0.00,VWS V14.01,2013-07-18 03:01:00,
2013-07-17 23:06:00,77.7,73.2,30.17,North,4,0.0,0.0,86,0.00,,CLR,0.00,VWS V14.01,2013-07-18 03:06:00,
2013-07-17 23:11:00,77.6,73.4,30.17,North,4,0.0,0.0,87,0.00,,CLR,0.00,VWS V14.01,2013-07-18 03:11:00,
2013-07-17 23:15:00,77.4,73.2,30.17,North,4,0.0,0.0,87,0.00,,OVC018,0.00,VWS V14.01,2013-07-18 03:15:00,
2013-07-17 23:16:00,77.4,73.2,30.17,North,4,0.0,0.0,87,0.00,,CLR,0.00,VWS V14.01,2013-07-18 03:16:00,
2013-07-17 23:21:00,77.2,73.0,30.17,North,4,0.0,0.0,87,0.00,,CLR,0.00,VWS V14.01,2013-07-18 03:21:00,
2013-07-17 23:26:00,77.0,72.8,30.17,North,4,0.0,0.0,87,0.00,,CLR,0.00,VWS V14.01,2013-07-18 03:26:00,
2013-07-17 23:30:00,77.0,73.2,30.17,North,4,0.0,0.0,88,0.00,,OVC018,0.00,VWS V14.01,2013-07-18 03:30:00,
2013-07-17 23:31:00,77.0,73.2,30.17,North,4,0.0,0.0,88,0.00,,CLR,0.00,VWS V14.01,2013-07-18 03:31:00,
2013-07-17 23:36:00,76.8,73.0,30.17,North,4,0.0,0.0,88,0.00,,CLR,0.00,VWS V14.01,2013-07-18 03:36:00,
2013-07-17 23:41:00,76.7,72.9,30.17,North,4,0.0,0.0,88,0.00,,CLR,0.00,VWS V14.01,2013-07-18 03:41:00,
2013-07-17 23:45:00,76.5,72.7,30.17,North,4,0.0,0.0,88,0.00,,OVC018,0.00,VWS V14.01,2013-07-18 03:45:00,
2013-07-17 23:46:00,76.5,72.7,30.17,North,4,0.0,0.0,88,0.00,,CLR,0.00,VWS V14.01,2013-07-18 03:46:00,
2013-07-17 23:51:00,76.3,72.8,30.17,North,4,0.0,0.0,89,0.00,,CLR,0.00,VWS V14.01,2013-07-18 03:51:00,
2013-07-17 23:56:00,76.3,72.8,30.17,North,4,0.0,0.0,89,0.00,,CLR,0.00,VWS V14.01,2013-07-18 03:56:00,